createdAt,value
2017-09-12T00:01:10.380Z,93869.81
2017-09-12T00:03:38.164Z,93854.05
2017-09-12T00:06:05.865Z,93844.22
2017-09-12T00:08:33.541Z,93840.84
2017-09-12T00:11:01.083Z,93822.66
2017-09-12T00:13:28.858Z,93824.42
2017-09-12T00:15:56.453Z,93842.12
2017-09-12T00:18:24.268Z,93842.90
2017-09-12T00:20:52.167Z,93843.88
2017-09-12T00:23:20.046Z,93840.47
2017-09-12T00:25:51.291Z,93828.80
2017-09-12T00:28:19.425Z,93821.98
2017-09-12T00:30:47.226Z,93822.20
2017-09-12T00:33:15.328Z,93817.33
2017-09-12T00:35:42.997Z,93814.72
2017-09-12T00:38:10.634Z,93812.06
2017-09-12T00:40:38.402Z,93827.27
2017-09-12T00:43:06.034Z,93819.00
2017-09-12T00:48:07.858Z,93832.50
2017-09-12T00:50:35.478Z,93821.86
2017-09-12T00:53:03.161Z,93808.62
2017-09-12T00:55:30.998Z,93824.81
2017-09-12T00:57:58.746Z,93854.27
2017-09-12T01:00:26.429Z,93864.00
2017-09-12T01:02:54.140Z,93872.41
2017-09-12T01:05:22.574Z,93879.38
2017-09-12T01:07:50.290Z,93854.88
2017-09-12T01:10:18.020Z,93851.61
2017-09-12T01:12:45.616Z,93855.59
2017-09-12T01:15:13.345Z,93836.61
2017-09-12T01:17:40.989Z,93851.20
2017-09-12T01:20:08.648Z,93845.36
2017-09-12T01:22:36.304Z,93831.32
2017-09-12T01:25:03.938Z,93839.88
2017-09-12T01:27:31.487Z,93821.13
2017-09-12T01:29:59.274Z,93827.07
2017-09-12T01:32:27.061Z,93840.22
2017-09-12T01:34:54.669Z,93857.35
2017-09-12T01:37:22.246Z,93842.27
2017-09-12T01:39:50.819Z,93838.86
2017-09-12T01:42:18.641Z,93863.44
2017-09-12T01:44:46.845Z,93859.41
2017-09-12T01:47:16.266Z,93810.11
2017-09-12T01:49:43.926Z,93879.82
2017-09-12T01:52:11.624Z,93922.73
2017-09-12T01:54:39.414Z,93884.53
2017-09-12T01:57:07.015Z,93878.69
2017-09-12T01:59:34.689Z,93899.44
2017-09-12T02:02:03.002Z,93907.47
2017-09-12T02:04:30.861Z,93873.00
2017-09-12T02:06:59.644Z,93881.61
2017-09-12T02:09:27.421Z,93895.84
2017-09-12T02:11:55.145Z,93899.69
2017-09-12T02:14:23.145Z,93895.17
2017-09-12T02:16:50.921Z,93897.31
2017-09-12T02:19:19.272Z,93885.34
2017-09-12T02:21:46.911Z,93881.14
2017-09-12T02:24:16.464Z,93892.05
2017-09-12T02:26:44.195Z,93872.70
2017-09-12T02:29:11.927Z,93890.11
2017-09-12T02:31:42.282Z,93901.41
2017-09-12T02:34:10.002Z,93900.27
2017-09-12T02:36:37.765Z,93895.94
2017-09-12T02:39:05.370Z,93920.00
2017-09-12T02:41:32.958Z,93890.45
2017-09-12T02:44:00.529Z,93901.03
2017-09-12T02:46:28.218Z,93912.89
2017-09-12T02:48:55.842Z,93910.23
2017-09-12T02:51:23.521Z,93907.43
2017-09-12T02:53:51.132Z,93906.53
2017-09-12T02:56:18.998Z,93918.48
2017-09-12T02:58:46.568Z,93924.75
2017-09-12T03:01:14.116Z,93922.73
2017-09-12T03:03:41.714Z,93912.47
2017-09-12T03:06:09.423Z,93910.05
2017-09-12T03:08:37.043Z,93906.87
2017-09-12T03:11:04.646Z,93903.84
2017-09-12T03:13:32.205Z,93897.19
2017-09-12T03:15:59.813Z,93896.20
2017-09-12T03:18:27.405Z,93892.12
2017-09-12T03:20:55.216Z,93879.66
2017-09-12T03:23:22.803Z,93881.73
2017-09-12T03:25:50.601Z,93887.80
2017-09-12T03:28:18.235Z,93894.49
2017-09-12T03:30:45.975Z,93898.25
2017-09-12T03:33:13.609Z,93890.89
2017-09-12T03:35:41.177Z,93893.37
2017-09-12T03:38:08.732Z,93897.03
2017-09-12T03:40:36.378Z,93887.73
2017-09-12T03:43:04.163Z,93887.10
2017-09-12T03:45:31.970Z,93898.20
2017-09-12T03:47:59.820Z,93890.27
2017-09-12T03:50:27.627Z,93883.89
2017-09-12T03:52:55.187Z,93875.27
2017-09-12T03:55:22.821Z,93865.85
2017-09-12T03:57:50.354Z,93871.03
2017-09-12T04:00:17.965Z,93873.63
2017-09-12T04:02:45.531Z,93877.33
2017-09-12T04:05:13.322Z,93872.48
2017-09-12T04:07:40.903Z,93871.09
2017-09-12T04:10:08.502Z,93876.50
2017-09-12T04:12:36.097Z,93886.50
2017-09-12T04:15:03.671Z,93894.56
2017-09-12T04:17:31.429Z,93894.51
2017-09-12T04:19:59.003Z,93899.16
2017-09-12T04:22:27.453Z,93912.55
2017-09-12T04:24:55.129Z,93915.04
2017-09-12T04:27:22.867Z,93915.34
2017-09-12T04:29:50.519Z,93921.42
2017-09-12T04:32:18.085Z,93912.02
2017-09-12T04:34:45.650Z,93902.50
2017-09-12T04:37:13.173Z,93902.42
2017-09-12T04:39:40.865Z,93903.55
2017-09-12T04:42:08.407Z,93903.02
2017-09-12T04:44:35.950Z,93886.83
2017-09-12T04:47:03.563Z,93897.62
2017-09-12T04:49:31.375Z,93910.57
2017-09-12T04:51:58.972Z,93894.03
2017-09-12T04:54:26.715Z,93866.77
2017-09-12T04:56:54.463Z,93873.41
2017-09-12T04:59:22.014Z,93884.05
2017-09-12T05:01:49.636Z,93912.37
2017-09-12T05:04:17.229Z,93929.66
2017-09-12T05:06:45.042Z,93924.11
2017-09-12T05:09:12.839Z,93910.57
2017-09-12T05:11:42.293Z,93919.30
2017-09-12T05:14:10.131Z,93933.13
2017-09-12T05:19:12.303Z,93940.73
2017-09-12T05:21:42.538Z,93948.97
2017-09-12T05:24:10.196Z,93942.70
2017-09-12T05:26:37.855Z,93942.17
2017-09-12T05:34:16.276Z,93932.00
2017-09-12T05:36:49.120Z,93950.77
2017-09-12T05:39:20.275Z,93964.45
2017-09-12T05:41:48.512Z,93967.19
2017-09-12T05:44:17.112Z,93954.18
2017-09-12T05:46:45.391Z,93972.66
2017-09-12T05:49:13.153Z,93980.53
2017-09-12T05:51:51.397Z,93972.31
2017-09-12T05:54:22.920Z,93974.72
2017-09-12T06:09:41.715Z,93982.14
2017-09-12T06:33:10.598Z,94005.98
2017-09-12T06:40:50.949Z,94019.66
2017-09-12T06:43:22.419Z,94017.14
2017-09-12T06:45:55.827Z,94022.35
2017-09-12T06:51:34.368Z,94029.98
2017-09-12T06:54:06.506Z,94034.30
2017-09-12T06:56:46.438Z,94035.48
2017-09-12T07:07:05.756Z,94047.38
2017-09-12T07:09:34.836Z,94052.32
2017-09-12T07:14:34.837Z,94071.42
2017-09-12T07:17:02.730Z,94073.34
2017-09-12T07:19:35.598Z,94082.55
2017-09-12T07:30:57.978Z,94077.47
2017-09-12T07:33:27.186Z,94075.12
2017-09-12T07:45:29.786Z,94081.92
2017-09-12T07:47:59.836Z,94092.84
2017-09-12T07:50:31.355Z,94091.36
2017-09-12T07:55:39.887Z,94093.90
2017-09-12T07:58:08.434Z,94103.00
2017-09-12T08:10:57.077Z,94085.32
2017-09-12T08:13:28.255Z,94102.58
2017-09-12T08:21:16.739Z,94102.08
2017-09-12T08:32:34.078Z,94095.86
2017-09-12T08:35:01.938Z,94097.57
2017-09-12T08:37:29.659Z,94107.38
2017-09-12T08:39:57.584Z,94108.30
2017-09-12T08:42:25.643Z,94102.50
2017-09-12T08:44:55.030Z,94105.11
2017-09-12T08:47:28.085Z,94122.13
2017-09-12T08:49:56.107Z,94122.00
2017-09-12T08:55:38.896Z,94128.53
2017-09-12T08:58:09.043Z,94129.78
2017-09-12T09:00:37.084Z,94133.05
2017-09-12T09:03:05.849Z,94124.20
2017-09-12T09:05:36.557Z,94136.59
2017-09-12T09:08:05.190Z,94145.95
2017-09-12T09:13:08.904Z,94148.41
2017-09-12T09:18:18.578Z,94158.62
2017-09-12T09:31:02.536Z,94158.16
2017-09-12T09:48:55.392Z,94169.48
2017-09-12T09:51:27.027Z,94167.97
2017-09-12T10:05:50.115Z,94173.41
2017-09-12T10:08:45.994Z,94178.94
2017-09-12T10:17:11.962Z,94203.52
2017-09-12T10:19:40.876Z,94193.33
2017-09-12T10:27:56.553Z,94203.03
2017-09-12T10:30:31.663Z,94207.36
2017-09-12T10:36:30.706Z,94219.84
2017-09-12T14:13:03.403Z,94390.56
2017-09-12T15:05:09.351Z,94420.63
2017-09-12T15:38:31.335Z,94444.69
2017-09-12T15:53:35.459Z,94463.05
2017-09-12T15:58:37.955Z,94451.45
2017-09-12T16:03:50.298Z,94457.37
2017-09-12T16:06:18.039Z,94452.64
2017-09-12T16:09:14.454Z,94457.45
2017-09-12T16:17:55.799Z,94460.94
2017-09-12T16:20:23.528Z,94464.80
2017-09-12T16:22:51.949Z,94460.47
2017-09-12T16:25:19.610Z,94463.80
2017-09-12T16:27:47.709Z,94461.34
2017-09-12T16:30:15.799Z,94464.06
2017-09-12T16:32:43.588Z,94466.73
2017-09-12T16:35:11.160Z,94464.59
2017-09-12T16:37:39.087Z,94467.92
2017-09-12T16:40:06.699Z,94467.17
2017-09-12T16:42:34.308Z,94467.45
2017-09-12T16:45:02.101Z,94459.73
2017-09-12T16:47:29.848Z,94457.06
2017-09-12T16:49:57.455Z,94455.94
2017-09-12T16:52:25.509Z,94459.56
2017-09-12T16:54:53.320Z,94460.63
2017-09-12T16:57:21.086Z,94467.68
2017-09-12T16:59:49.135Z,94460.16
2017-09-12T17:02:16.895Z,94464.59
2017-09-12T17:04:44.757Z,94470.52
2017-09-12T17:07:12.449Z,94472.23
2017-09-12T17:09:40.656Z,94477.28
2017-09-12T17:12:08.572Z,94485.66
2017-09-12T17:14:37.184Z,94485.05
2017-09-12T17:17:05.225Z,94490.18
2017-09-12T17:19:33.168Z,94495.44
2017-09-12T17:22:00.856Z,94497.67
2017-09-12T17:24:28.598Z,94500.20
2017-09-12T17:26:57.775Z,94498.20
2017-09-12T17:29:25.628Z,94505.40
2017-09-12T17:31:53.938Z,94518.02
2017-09-12T17:34:21.767Z,94512.45
2017-09-12T17:36:49.493Z,94518.92
2017-09-12T17:39:18.148Z,94518.11
2017-09-12T17:41:46.204Z,94520.41
2017-09-12T17:44:15.027Z,94531.75
2017-09-12T17:46:42.960Z,94532.73
2017-09-12T17:49:10.608Z,94542.80
2017-09-12T17:51:38.303Z,94543.94
2017-09-12T17:56:39.904Z,94548.32
2017-09-12T17:59:07.540Z,94552.53
2017-09-12T18:01:35.217Z,94561.66
2017-09-12T18:04:03.106Z,94561.06
2017-09-12T18:06:30.967Z,94562.02
2017-09-12T18:08:59.244Z,94565.49
2017-09-12T18:11:27.487Z,94556.53
2017-09-12T18:13:55.147Z,94563.78
2017-09-12T18:16:22.881Z,94567.44
2017-09-12T18:18:50.957Z,94570.83
2017-09-12T18:21:18.846Z,94574.31
2017-09-12T18:23:46.573Z,94570.16
2017-09-12T18:26:14.496Z,94577.59
2017-09-12T18:28:42.319Z,94578.31
2017-09-12T18:31:10.133Z,94582.70
2017-09-12T18:33:38.025Z,94579.27
2017-09-12T18:36:05.716Z,94579.70
2017-09-12T18:38:33.479Z,94590.17
2017-09-12T18:41:01.006Z,94589.05
2017-09-12T18:43:29.007Z,94588.52
2017-09-12T18:45:56.623Z,94591.56
2017-09-12T18:48:24.302Z,94589.13
2017-09-12T18:50:52.014Z,94598.47
2017-09-12T18:53:19.634Z,94601.56
2017-09-12T18:55:47.729Z,94609.20
2017-09-12T19:03:23.272Z,94607.34
2017-09-12T19:05:51.189Z,94607.53
2017-09-12T19:08:20.119Z,94599.17
2017-09-12T19:13:22.190Z,94610.02
2017-09-12T19:15:50.074Z,94606.60
2017-09-12T19:18:17.788Z,94616.52
2017-09-12T19:20:46.712Z,94610.66
2017-09-12T19:23:14.322Z,94609.55
2017-09-12T19:25:46.051Z,94613.55
2017-09-12T19:28:14.041Z,94618.56
2017-09-12T19:30:41.735Z,94622.95
2017-09-12T19:33:09.476Z,94629.84
2017-09-12T19:35:37.150Z,94632.19
2017-09-12T19:38:13.737Z,94635.44
2017-09-12T19:40:41.486Z,94639.81
2017-09-12T19:43:09.122Z,94643.24
2017-09-12T19:45:36.842Z,94636.62
2017-09-12T19:48:05.424Z,94635.14
2017-09-12T19:50:33.359Z,94635.48
2017-09-12T19:53:00.987Z,94641.43
2017-09-12T19:55:28.623Z,94643.92
2017-09-12T19:57:56.298Z,94650.97
2017-09-12T20:00:24.037Z,94645.48
2017-09-12T20:02:51.751Z,94652.73
2017-09-12T20:05:19.365Z,94654.88
2017-09-12T20:07:47.167Z,94661.77
2017-09-12T20:10:15.074Z,94664.06
2017-09-12T20:12:43.631Z,94665.02
2017-09-12T20:15:11.399Z,94669.45
2017-09-12T20:17:39.024Z,94675.36
2017-09-12T20:20:06.598Z,94673.87
2017-09-12T20:22:34.433Z,94679.48
2017-09-12T20:25:02.044Z,94683.20
2017-09-12T20:27:29.658Z,94695.16
2017-09-12T20:29:57.269Z,94696.62
2017-09-12T20:32:25.032Z,94706.84
2017-09-12T20:34:52.623Z,94693.30
2017-09-12T20:37:20.251Z,94697.45
2017-09-12T20:39:47.846Z,94701.56
2017-09-12T20:42:15.541Z,94702.84
2017-09-12T20:44:43.172Z,94710.34
2017-09-12T20:49:44.531Z,94715.09
2017-09-12T20:52:12.113Z,94717.58
2017-09-12T20:54:43.334Z,94708.75
2017-09-12T20:57:14.319Z,94711.55
2017-09-12T20:59:44.916Z,94711.44
2017-09-12T21:02:12.682Z,94717.47
2017-09-12T21:04:40.930Z,94720.22
2017-09-12T21:07:08.533Z,94729.05
2017-09-12T21:09:36.175Z,94735.22
2017-09-12T21:12:04.169Z,94734.16
2017-09-12T21:14:32.105Z,94745.47
2017-09-12T21:16:59.796Z,94749.50
2017-09-12T21:19:27.435Z,94755.83
2017-09-12T21:21:55.048Z,94750.53
2017-09-12T21:24:22.763Z,94751.72
2017-09-12T21:26:50.556Z,94757.35
2017-09-12T21:29:18.736Z,94757.23
2017-09-12T21:31:46.417Z,94758.91
2017-09-12T21:34:14.099Z,94758.98
2017-09-12T21:39:17.340Z,94766.37
2017-09-12T21:41:45.119Z,94763.36
2017-09-12T21:44:16.668Z,94768.42
2017-09-12T21:46:46.948Z,94771.31
2017-09-12T21:49:14.568Z,94770.02
2017-09-12T21:51:42.280Z,94776.94
2017-09-12T21:54:09.873Z,94779.67
2017-09-12T21:56:37.582Z,94784.84
2017-09-12T21:59:06.653Z,94793.67
2017-09-12T22:01:34.322Z,94795.41
2017-09-12T22:04:01.911Z,94792.79
2017-09-12T22:06:29.550Z,94796.28
2017-09-12T22:08:57.183Z,94794.98
2017-09-12T22:11:34.653Z,94802.59
2017-09-12T22:14:02.394Z,94807.03
2017-09-12T22:16:30.002Z,94805.02
2017-09-12T22:18:57.889Z,94808.47
2017-09-12T22:23:59.389Z,94811.58
2017-09-12T22:26:27.077Z,94804.96
2017-09-12T22:28:55.144Z,94806.67
2017-09-12T22:31:25.060Z,94810.92
2017-09-12T22:33:52.740Z,94816.05
2017-09-12T22:36:20.468Z,94824.45
2017-09-12T22:38:48.720Z,94820.91
2017-09-12T22:41:16.455Z,94827.97
2017-09-12T22:43:45.214Z,94825.91
2017-09-12T22:46:14.376Z,94826.71
2017-09-12T22:48:41.947Z,94830.73
2017-09-12T22:51:12.144Z,94833.23
2017-09-12T22:53:39.792Z,94835.93
2017-09-12T22:56:07.395Z,94833.11
2017-09-12T22:58:35.060Z,94831.59
2017-09-12T23:01:03.153Z,94841.70
2017-09-12T23:03:30.969Z,94844.23
2017-09-12T23:05:58.666Z,94844.05
2017-09-12T23:08:26.290Z,94841.83
2017-09-12T23:10:54.017Z,94847.15
2017-09-12T23:13:21.623Z,94843.77
2017-09-12T23:15:49.918Z,94848.70
2017-09-12T23:18:17.533Z,94848.55
2017-09-12T23:20:45.173Z,94848.58
2017-09-12T23:23:12.990Z,94853.36
2017-09-12T23:25:40.632Z,94845.41
2017-09-12T23:28:09.181Z,94844.67
2017-09-12T23:30:36.776Z,94842.99
2017-09-12T23:33:05.149Z,94852.31
2017-09-12T23:35:32.812Z,94850.06
2017-09-12T23:38:00.514Z,94852.31
2017-09-12T23:40:28.368Z,94852.34
2017-09-12T23:42:55.912Z,94849.52
2017-09-12T23:47:59.226Z,94845.78
2017-09-12T23:50:26.866Z,94850.56
2017-09-12T23:52:54.481Z,94858.73
2017-09-12T23:55:22.140Z,94855.91
2017-09-12T23:57:49.703Z,94864.68
